createdAt,value
2019-02-07T00:00:15.072Z,100870.63
2019-02-07T00:00:53.583Z,100869.55
2019-02-07T00:01:31.787Z,100869.81
2019-02-07T00:02:07.971Z,100874.37
2019-02-07T00:02:44.080Z,100878.95
2019-02-07T00:03:20.161Z,100876.27
2019-02-07T00:03:56.408Z,100879.50
2019-02-07T00:04:32.620Z,100882.19
2019-02-07T00:05:09.102Z,100878.95
2019-02-07T00:05:45.165Z,100877.34
2019-02-07T00:06:21.476Z,100882.45
2019-02-07T00:06:57.728Z,100882.72
2019-02-07T00:07:34.098Z,100882.72
2019-02-07T00:08:10.226Z,100885.97
2019-02-07T00:08:46.665Z,100883.53
2019-02-07T00:09:22.888Z,100882.45
2019-02-07T00:09:59.104Z,100885.41
2019-02-07T00:10:35.423Z,100886.73
2019-02-07T00:11:11.688Z,100890.50
2019-02-07T00:11:47.794Z,100892.11
2019-02-07T00:12:23.884Z,100884.29
2019-02-07T00:12:59.920Z,100891.55
2019-02-07T00:13:36.058Z,100891.81
2019-02-07T00:14:12.239Z,100893.95
2019-02-07T00:14:48.674Z,100890.17
2019-02-07T00:15:24.791Z,100892.61
2019-02-07T00:16:00.987Z,100896.11
2019-02-07T00:16:37.173Z,100895.84
2019-02-07T00:17:13.419Z,100895.55
2019-02-07T00:17:49.655Z,100893.42
2019-02-07T00:18:25.723Z,100897.98
2019-02-07T00:19:01.895Z,100900.94
2019-02-07T00:19:38.056Z,100897.16
2019-02-07T00:20:14.674Z,100897.69
2019-02-07T00:20:50.862Z,100902.25
2019-02-07T00:21:27.236Z,100901.16
2019-02-07T00:22:03.445Z,100901.42
2019-02-07T00:22:39.606Z,100904.92
2019-02-07T00:23:15.796Z,100901.41
2019-02-07T00:23:51.903Z,100908.13
2019-02-07T00:24:28.124Z,100909.47
2019-02-07T00:25:04.342Z,100904.61
2019-02-07T00:25:40.589Z,100908.37
2019-02-07T00:26:16.843Z,100907.83
2019-02-07T00:26:52.947Z,100913.23
2019-02-07T00:27:28.991Z,100910.23
2019-02-07T00:28:05.316Z,100910.75
2019-02-07T00:28:41.567Z,100911.28
2019-02-07T00:29:17.653Z,100908.28
2019-02-07T00:29:53.812Z,100913.65
2019-02-07T00:30:30.080Z,100914.17
2019-02-07T00:31:06.299Z,100917.65
2019-02-07T00:31:42.711Z,100919.52
2019-02-07T00:32:18.795Z,100921.68
2019-02-07T00:32:55.221Z,100921.66
2019-02-07T00:33:31.280Z,100920.28
2019-02-07T00:34:07.464Z,100924.86
2019-02-07T00:34:43.572Z,100931.02
2019-02-07T00:35:19.878Z,100931.02
2019-02-07T00:35:55.976Z,100924.51
2019-02-07T00:36:32.065Z,100927.21
2019-02-07T00:37:08.417Z,100928.53
2019-02-07T00:37:44.582Z,100926.91
2019-02-07T00:38:20.867Z,100930.38
2019-02-07T00:38:57.202Z,100933.86
2019-02-07T00:39:33.310Z,100933.05
2019-02-07T00:40:12.410Z,100930.61
2019-02-07T00:40:48.763Z,100934.64
2019-02-07T00:41:24.790Z,100934.90
2019-02-07T00:42:01.267Z,100936.20
2019-02-07T00:42:37.391Z,100936.20
2019-02-07T00:43:13.812Z,100937.00
2019-02-07T00:43:50.087Z,100942.34
2019-02-07T00:44:26.260Z,100942.34
2019-02-07T00:45:02.393Z,100937.98
2019-02-07T00:45:38.628Z,100944.70
2019-02-07T00:46:14.788Z,100937.67
2019-02-07T00:46:51.010Z,100942.50
2019-02-07T00:47:27.160Z,100938.70
2019-02-07T00:48:03.266Z,100947.58
2019-02-07T00:48:39.532Z,100942.19
2019-02-07T00:49:15.815Z,100947.84
2019-02-07T00:49:52.077Z,100940.00
2019-02-07T00:50:30.973Z,100945.41
2019-02-07T00:51:06.108Z,100943.22
2019-02-07T00:51:42.362Z,100932.16
2019-02-07T00:52:18.707Z,100949.08
2019-02-07T00:52:54.997Z,100947.70
2019-02-07T00:53:31.669Z,100949.82
2019-02-07T00:54:08.214Z,100949.53
2019-02-07T00:54:44.307Z,100949.53
2019-02-07T00:55:20.492Z,100946.55
2019-02-07T00:55:56.619Z,100959.73
2019-02-07T00:56:32.899Z,100959.73
2019-02-07T00:57:09.168Z,100953.49
2019-02-07T00:57:45.538Z,100959.67
2019-02-07T00:58:21.609Z,100957.22
2019-02-07T00:58:57.697Z,100956.39
2019-02-07T00:59:33.939Z,100958.52
2019-02-07T01:00:21.697Z,100962.53
2019-02-07T01:00:57.795Z,100944.97
2019-02-07T01:01:34.092Z,100944.97
2019-02-07T01:02:10.264Z,100954.84
2019-02-07T01:02:46.531Z,100953.45
2019-02-07T01:03:22.610Z,100953.20
2019-02-07T01:03:58.666Z,100957.50
2019-02-07T01:04:34.729Z,100949.66
2019-02-07T01:05:11.412Z,100954.19
2019-02-07T01:05:47.908Z,100946.91
2019-02-07T01:06:24.119Z,100955.49
2019-02-07T01:07:00.229Z,100956.00
2019-02-07T01:07:36.336Z,100956.00
2019-02-07T01:08:12.672Z,100963.53
2019-02-07T01:08:49.118Z,100962.44
2019-02-07T01:09:25.513Z,100963.20
2019-02-07T01:10:01.648Z,100957.80
2019-02-07T01:10:37.755Z,100957.80
2019-02-07T01:11:14.004Z,100966.09
2019-02-07T01:11:50.660Z,100955.52
2019-02-07T01:12:26.726Z,100955.52
2019-02-07T01:13:03.048Z,100964.36
2019-02-07T01:13:39.213Z,100965.38
2019-02-07T01:14:15.258Z,100970.17
2019-02-07T01:15:01.438Z,100967.09
2019-02-07T01:15:29.999Z,100966.78
2019-02-07T01:16:06.398Z,100966.78
2019-02-07T01:16:42.624Z,100964.88
2019-02-07T01:17:18.806Z,100971.30
2019-02-07T01:17:55.043Z,100964.20
2019-02-07T01:18:31.181Z,100962.77
2019-02-07T01:19:07.338Z,100963.47
2019-02-07T01:19:43.619Z,100963.47
2019-02-07T01:20:20.120Z,100969.90
2019-02-07T01:20:56.411Z,100969.30
2019-02-07T01:21:32.531Z,100971.17
2019-02-07T01:22:08.803Z,100966.52
2019-02-07T01:22:44.915Z,100966.45
2019-02-07T01:23:21.362Z,100966.45
2019-02-07T01:23:57.615Z,100971.53
2019-02-07T01:24:33.785Z,100969.58
2019-02-07T01:25:11.611Z,100964.92
2019-02-07T01:25:47.853Z,100964.92
2019-02-07T01:26:24.088Z,100967.28
2019-02-07T01:27:00.204Z,100971.28
2019-02-07T01:27:36.288Z,100973.42
2019-02-07T01:28:12.466Z,100972.33
2019-02-07T01:28:48.879Z,100976.41
2019-02-07T01:29:24.917Z,100966.91
2019-02-07T01:30:01.590Z,100973.63
2019-02-07T01:30:37.778Z,100972.48
2019-02-07T01:31:13.927Z,100980.56
2019-02-07T01:31:50.145Z,100982.37
2019-02-07T01:32:26.173Z,100974.20
2019-02-07T01:33:02.385Z,100979.56
2019-02-07T01:33:38.737Z,100974.29
2019-02-07T01:34:14.987Z,100989.30
2019-02-07T01:34:51.921Z,100984.98
2019-02-07T01:35:28.147Z,100985.48
2019-02-07T01:36:04.246Z,100987.09
2019-02-07T01:36:40.289Z,100990.33
2019-02-07T01:37:16.398Z,100994.59
2019-02-07T01:37:52.526Z,100989.63
2019-02-07T01:38:28.621Z,100992.84
2019-02-07T01:39:05.875Z,100991.54
2019-02-07T01:39:42.199Z,100994.05
2019-02-07T01:40:19.506Z,100996.45
2019-02-07T01:40:55.830Z,100999.11
2019-02-07T01:41:31.945Z,101002.33
2019-02-07T01:42:08.037Z,101007.70
2019-02-07T01:42:44.494Z,100999.27
2019-02-07T01:43:20.552Z,100997.36
2019-02-07T01:43:56.850Z,100998.41
2019-02-07T01:44:32.966Z,101001.88
2019-02-07T01:45:12.997Z,101006.47
2019-02-07T01:45:48.370Z,101004.27
2019-02-07T01:46:24.524Z,101001.84
2019-02-07T01:47:00.624Z,101000.73
2019-02-07T01:47:36.809Z,101004.24
2019-02-07T01:48:12.939Z,101006.05
2019-02-07T01:48:49.014Z,101004.39
2019-02-07T01:49:25.127Z,101007.80
2019-02-07T01:50:01.298Z,101007.45
2019-02-07T01:50:37.367Z,101007.92
2019-02-07T01:51:13.581Z,101007.07
2019-02-07T01:51:49.674Z,101009.13
2019-02-07T01:52:25.764Z,101010.37
2019-02-07T01:53:01.939Z,101012.42
2019-02-07T01:53:38.044Z,101009.68
2019-02-07T01:54:14.113Z,101017.27
2019-02-07T01:54:50.313Z,101013.89
2019-02-07T01:55:26.368Z,101020.86
2019-02-07T01:56:02.724Z,101018.62
2019-02-07T01:56:38.975Z,101017.77
2019-02-07T01:57:15.244Z,101024.80
2019-02-07T01:57:51.643Z,101023.94
2019-02-07T01:58:27.707Z,101030.94
2019-02-07T01:59:04.104Z,101028.47
2019-02-07T01:59:40.329Z,101026.26
2019-02-07T02:00:17.915Z,101030.02
2019-02-07T02:00:54.194Z,101026.20
2019-02-07T02:01:30.329Z,101032.12
2019-02-07T02:02:06.554Z,101031.27
2019-02-07T02:02:42.780Z,101027.69
2019-02-07T02:03:19.013Z,101028.69
2019-02-07T02:03:55.147Z,101030.78
2019-02-07T02:04:31.180Z,101031.28
2019-02-07T02:05:08.162Z,101030.45
2019-02-07T02:05:44.228Z,101035.26
2019-02-07T02:06:20.378Z,101039.58
2019-02-07T02:06:56.630Z,101037.78
2019-02-07T02:07:32.776Z,101043.41
2019-02-07T02:08:09.232Z,101045.50
2019-02-07T02:08:45.347Z,101043.28
2019-02-07T02:09:21.996Z,101044.89
2019-02-07T02:09:58.092Z,101042.91
2019-02-07T02:10:34.208Z,101050.20
2019-02-07T02:11:10.363Z,101045.75
2019-02-07T02:11:46.593Z,101046.80
2019-02-07T02:12:22.703Z,101045.94
2019-02-07T02:12:58.952Z,101045.88
2019-02-07T02:13:35.226Z,101049.03
2019-02-07T02:14:11.595Z,101045.45
2019-02-07T02:14:47.696Z,101042.05
2019-02-07T02:15:25.214Z,101048.78
2019-02-07T02:16:01.436Z,101052.27
2019-02-07T02:16:37.620Z,101051.64
2019-02-07T02:17:13.800Z,101047.08
2019-02-07T02:17:50.011Z,101046.21
2019-02-07T02:18:26.063Z,101055.16
2019-02-07T02:19:02.332Z,101055.66
2019-02-07T02:19:38.765Z,101056.64
2019-02-07T02:20:18.051Z,101051.02
2019-02-07T02:20:54.113Z,101058.13
2019-02-07T02:21:30.340Z,101052.14
2019-02-07T02:22:06.419Z,101048.80
2019-02-07T02:22:42.579Z,101054.23
2019-02-07T02:23:18.714Z,101057.44
2019-02-07T02:23:54.803Z,101054.34
2019-02-07T02:24:31.029Z,101050.77
2019-02-07T02:25:07.878Z,101053.97
2019-02-07T02:25:43.972Z,101056.34
2019-02-07T02:26:20.100Z,101051.64
2019-02-07T02:26:56.211Z,101051.30
2019-02-07T02:27:32.351Z,101060.43
2019-02-07T02:28:08.532Z,101052.52
2019-02-07T02:28:44.657Z,101051.41
2019-02-07T02:29:20.939Z,101046.78
2019-02-07T02:29:57.273Z,101052.14
2019-02-07T02:30:35.578Z,101053.26
2019-02-07T02:31:12.154Z,101055.35
2019-02-07T02:31:49.401Z,101049.30
2019-02-07T02:32:25.518Z,101050.66
2019-02-07T02:33:01.667Z,101052.15
2019-02-07T02:33:37.929Z,101049.12
2019-02-07T02:34:14.101Z,101045.22
2019-02-07T02:34:50.150Z,101047.55
2019-02-07T02:35:26.342Z,101053.23
2019-02-07T02:36:02.520Z,101047.55
2019-02-07T02:36:38.571Z,101047.80
2019-02-07T02:37:14.723Z,101048.04
2019-02-07T02:37:50.847Z,101044.52
2019-02-07T02:38:27.075Z,101049.08
2019-02-07T02:39:04.848Z,101048.52
2019-02-07T02:39:40.994Z,101047.41
2019-02-07T02:40:17.393Z,101049.81
2019-02-07T02:40:53.555Z,101048.10
2019-02-07T02:41:30.911Z,101049.14
2019-02-07T02:42:07.258Z,101055.80
2019-02-07T02:42:43.602Z,101053.28
2019-02-07T02:43:19.862Z,101053.94
2019-02-07T02:43:55.991Z,101054.42
2019-02-07T02:44:32.170Z,101049.19
2019-02-07T02:45:09.814Z,101051.11
2019-02-07T02:45:45.949Z,101055.91
2019-02-07T02:46:22.172Z,101053.20
2019-02-07T02:46:58.418Z,101050.33
2019-02-07T02:47:34.480Z,101053.45
2019-02-07T02:48:10.682Z,101051.53
2019-02-07T02:48:46.708Z,101046.83
2019-02-07T02:49:22.824Z,101051.07
2019-02-07T02:49:59.067Z,101046.44
2019-02-07T02:50:35.370Z,101049.39
2019-02-07T02:51:11.607Z,101048.79
2019-02-07T02:51:47.709Z,101049.39
2019-02-07T02:52:23.888Z,101048.31
2019-02-07T02:53:00.394Z,101048.67
2019-02-07T02:53:36.560Z,101051.07
2019-02-07T02:54:31.790Z,101048.03
2019-02-07T02:55:09.192Z,101060.79
2019-02-07T02:55:45.562Z,101055.95
2019-02-07T02:56:21.750Z,101051.51
2019-02-07T02:56:57.886Z,101049.03
2019-02-07T02:57:34.313Z,101050.63
2019-02-07T02:58:10.520Z,101050.15
2019-02-07T02:58:46.984Z,101056.95
2019-02-07T02:59:23.099Z,101051.75
2019-02-07T02:59:59.358Z,101053.59
2019-02-07T03:00:52.471Z,101050.87
2019-02-07T03:01:47.450Z,101055.44
2019-02-07T03:02:49.230Z,101056.80
2019-02-07T03:03:35.523Z,101057.28
2019-02-07T03:04:30.688Z,101053.20
2019-02-07T03:05:24.039Z,101052.88
2019-02-07T03:06:10.673Z,101053.05
2019-02-07T03:07:03.899Z,101054.92
2019-02-07T03:07:56.229Z,101055.16
2019-02-07T03:08:54.891Z,101051.08
2019-02-07T03:09:49.305Z,101046.44
2019-02-07T03:10:40.829Z,101054.61
2019-02-07T03:11:35.795Z,101051.80
2019-02-07T03:12:29.047Z,101048.28
2019-02-07T03:13:26.498Z,101049.33
2019-02-07T03:14:19.580Z,101048.84
2019-02-07T03:15:20.509Z,101051.44
2019-02-07T03:16:13.712Z,101047.84
2019-02-07T03:17:11.413Z,101048.32
2019-02-07T03:18:05.507Z,101053.13
2019-02-07T03:19:07.297Z,101048.64
2019-02-07T03:20:08.129Z,101045.76
2019-02-07T03:21:08.710Z,101052.09
2019-02-07T03:21:52.623Z,101053.05
2019-02-07T03:23:02.549Z,101051.08
2019-02-07T03:24:00.241Z,101046.83
2019-02-07T03:24:57.888Z,101048.43
2019-02-07T03:26:01.820Z,101047.14
2019-02-07T03:26:55.418Z,101051.39
2019-02-07T03:27:56.116Z,101051.81
2019-02-07T03:28:42.328Z,101045.75
2019-02-07T03:29:40.932Z,101043.98
2019-02-07T03:30:34.155Z,101041.98
2019-02-07T03:31:33.088Z,101045.66
2019-02-07T03:32:28.103Z,101044.13
2019-02-07T03:33:19.561Z,101038.67
2019-02-07T03:34:14.547Z,101041.73
2019-02-07T03:35:08.006Z,101042.92
2019-02-07T03:36:01.215Z,101040.91
2019-02-07T03:36:47.712Z,101039.31
2019-02-07T03:37:49.137Z,101040.34
2019-02-07T03:38:42.258Z,101045.47
2019-02-07T03:39:28.745Z,101040.03
2019-02-07T03:40:24.282Z,101040.27
2019-02-07T03:41:09.856Z,101041.39
2019-02-07T03:41:59.547Z,101035.94
2019-02-07T03:42:54.499Z,101035.94
2019-02-07T03:43:46.890Z,101036.17
2019-02-07T03:44:36.134Z,101036.56
2019-02-07T03:45:33.753Z,101037.36
2019-02-07T03:46:33.810Z,101037.84
2019-02-07T03:47:19.849Z,101031.53
2019-02-07T03:48:23.491Z,101030.91
2019-02-07T03:49:24.265Z,101028.56
2019-02-07T03:50:21.762Z,101027.59
2019-02-07T03:51:15.357Z,101018.91
2019-02-07T03:52:22.237Z,101020.67
2019-02-07T03:53:13.207Z,101015.93
2019-02-07T03:54:14.193Z,101020.48
2019-02-07T03:55:09.161Z,101023.45
2019-02-07T03:56:13.171Z,101024.02
2019-02-07T03:57:10.333Z,101021.77
2019-02-07T03:58:12.744Z,101020.55
2019-02-07T03:59:19.597Z,101015.09
2019-02-07T04:00:20.399Z,101018.05
2019-02-07T04:01:15.343Z,101018.61
2019-02-07T04:02:04.660Z,101013.77
2019-02-07T04:03:14.459Z,101014.71
2019-02-07T04:04:02.118Z,101011.13
2019-02-07T04:04:55.854Z,101007.89
2019-02-07T04:05:59.505Z,101004.54
2019-02-07T04:06:48.075Z,101005.67
2019-02-07T04:08:00.836Z,101004.07
2019-02-07T04:09:08.025Z,101005.44
2019-02-07T04:10:01.026Z,100998.34
2019-02-07T04:10:58.561Z,100994.99
2019-02-07T04:11:51.589Z,100998.75
2019-02-07T04:12:52.190Z,100996.20
2019-02-07T04:13:43.277Z,100995.87
2019-02-07T04:14:38.378Z,100997.37
2019-02-07T04:15:46.277Z,100995.02
2019-02-07T04:16:37.996Z,100989.92
2019-02-07T04:17:43.467Z,100986.56
2019-02-07T04:18:38.458Z,100989.99
2019-02-07T04:19:39.069Z,100988.83
2019-02-07T04:20:34.342Z,100985.59
2019-02-07T04:21:31.905Z,100986.09
2019-02-07T04:22:22.786Z,100979.74
2019-02-07T04:23:06.689Z,100982.80
2019-02-07T04:24:13.853Z,100968.66
2019-02-07T04:25:10.603Z,100975.19
2019-02-07T04:26:17.253Z,100965.87
2019-02-07T04:27:14.882Z,100973.05
2019-02-07T04:28:17.937Z,100961.45
2019-02-07T04:29:11.043Z,100967.73
2019-02-07T04:30:05.967Z,100965.14
2019-02-07T04:31:09.946Z,100961.28
2019-02-07T04:32:16.813Z,100955.48
2019-02-07T04:33:16.572Z,100966.87
2019-02-07T04:34:09.278Z,100962.54
2019-02-07T04:35:08.446Z,100955.92
2019-02-07T04:36:01.765Z,100955.92
2019-02-07T04:37:08.917Z,100957.52
2019-02-07T04:38:18.885Z,100957.08
2019-02-07T04:39:13.871Z,100955.82
2019-02-07T04:40:12.633Z,100955.05
2019-02-07T04:41:10.196Z,100948.95
2019-02-07T04:42:03.356Z,100943.96
2019-02-07T04:43:04.388Z,100949.19
2019-02-07T04:43:54.788Z,100944.89
2019-02-07T04:44:55.494Z,100950.97
2019-02-07T04:45:51.690Z,100946.44
2019-02-07T04:46:49.316Z,100945.77
2019-02-07T04:47:54.078Z,100941.11
2019-02-07T04:48:57.902Z,100940.41
2019-02-07T04:49:55.709Z,100943.14
2019-02-07T04:50:59.668Z,100938.25
2019-02-07T04:52:12.686Z,100941.98
2019-02-07T04:53:25.772Z,100940.05
2019-02-07T04:54:28.261Z,100939.48
2019-02-07T04:55:35.119Z,100939.97
2019-02-07T04:56:32.716Z,100938.77
2019-02-07T04:57:20.292Z,100934.10
2019-02-07T04:58:13.669Z,100930.34
2019-02-07T04:59:06.767Z,100933.92
2019-02-07T04:59:59.897Z,100927.33
2019-02-07T05:01:00.914Z,100923.70
2019-02-07T05:01:58.791Z,100925.40
2019-02-07T05:03:11.902Z,100923.80
2019-02-07T05:04:14.626Z,100924.94
2019-02-07T05:05:12.432Z,100919.24
2019-02-07T05:05:57.378Z,100916.75
2019-02-07T05:06:50.475Z,100920.40
2019-02-07T05:07:43.788Z,100921.42
2019-02-07T05:08:34.185Z,100922.16
2019-02-07T05:09:21.186Z,100921.59
2019-02-07T05:10:14.687Z,100913.96
2019-02-07T05:11:18.619Z,100918.47
2019-02-07T05:12:04.789Z,100923.02
2019-02-07T05:12:59.815Z,100916.20
2019-02-07T05:14:03.717Z,100912.95
2019-02-07T05:14:58.721Z,100916.81
2019-02-07T05:16:03.334Z,100913.52
2019-02-07T05:17:16.397Z,100914.09
2019-02-07T05:18:09.538Z,100907.27
2019-02-07T05:19:07.717Z,100908.50
2019-02-07T05:20:02.705Z,100905.39
2019-02-07T05:21:00.555Z,100904.02
2019-02-07T05:21:48.570Z,100904.46
2019-02-07T05:22:41.932Z,100899.23
2019-02-07T05:23:45.939Z,100897.41
2019-02-07T05:24:46.670Z,100905.59
2019-02-07T05:25:39.772Z,100900.14
2019-02-07T05:26:40.690Z,100896.29
2019-02-07T05:27:53.678Z,100897.47
2019-02-07T05:28:57.488Z,100900.33
2019-02-07T05:29:49.059Z,100895.57
2019-02-07T05:30:42.417Z,100893.87
2019-02-07T05:31:25.903Z,100890.46
2019-02-07T05:32:23.453Z,100887.94
2019-02-07T05:33:16.612Z,100886.51
2019-02-07T05:34:03.039Z,100880.00
2019-02-07T05:35:15.713Z,100881.42
2019-02-07T05:36:05.448Z,100875.55
2019-02-07T05:36:58.703Z,100874.27
2019-02-07T05:37:54.649Z,100877.28
2019-02-07T05:38:47.653Z,100873.83
2019-02-07T05:39:40.698Z,100868.17
2019-02-07T05:40:35.709Z,100879.50
2019-02-07T05:41:48.472Z,100875.93
2019-02-07T05:42:41.516Z,100865.02
2019-02-07T05:43:36.491Z,100864.84
2019-02-07T05:44:31.439Z,100867.19
2019-02-07T05:45:25.716Z,100866.91
2019-02-07T05:46:11.861Z,100863.53
2019-02-07T05:47:05.423Z,100856.67
2019-02-07T05:47:54.881Z,100857.42
2019-02-07T05:48:48.137Z,100859.44
2019-02-07T05:49:43.060Z,100856.80
2019-02-07T05:50:38.264Z,100858.19
2019-02-07T05:51:25.468Z,100854.53
2019-02-07T05:52:35.088Z,100853.82
2019-02-07T05:53:28.559Z,100849.02
2019-02-07T05:54:21.912Z,100851.13
2019-02-07T05:55:14.998Z,100848.73
2019-02-07T05:56:08.281Z,100852.96
2019-02-07T05:57:06.412Z,100853.38
2019-02-07T05:57:59.754Z,100847.93
2019-02-07T05:58:54.851Z,100846.56
2019-02-07T05:59:49.718Z,100840.73
2019-02-07T06:00:44.680Z,100837.87
2019-02-07T06:01:48.988Z,100838.52
2019-02-07T06:02:47.105Z,100837.56
2019-02-07T06:03:33.430Z,100833.39
2019-02-07T06:04:31.157Z,100834.25
2019-02-07T06:05:32.747Z,100834.89
2019-02-07T06:06:27.738Z,100830.09
2019-02-07T06:07:21.106Z,100830.50
2019-02-07T06:08:14.275Z,100824.03
2019-02-07T06:09:04.262Z,100830.67
2019-02-07T06:09:57.865Z,100832.89
2019-02-07T06:11:01.864Z,100823.13
2019-02-07T06:12:02.857Z,100820.97
2019-02-07T06:12:56.067Z,100824.25
2019-02-07T06:13:56.743Z,100813.54
2019-02-07T06:14:51.697Z,100816.91
2019-02-07T06:15:45.270Z,100815.30
2019-02-07T06:16:48.896Z,100816.33
2019-02-07T06:17:46.882Z,100817.07
2019-02-07T06:18:40.243Z,100809.14
2019-02-07T06:19:35.168Z,100810.98
2019-02-07T06:20:36.356Z,100810.75
2019-02-07T06:21:31.192Z,100809.95
2019-02-07T06:22:24.569Z,100813.23
2019-02-07T06:23:19.482Z,100808.27
2019-02-07T06:24:11.119Z,100801.23
2019-02-07T06:25:15.036Z,100800.43
2019-02-07T06:26:08.517Z,100794.19
2019-02-07T06:27:01.792Z,100795.31
2019-02-07T06:27:56.807Z,100795.31
2019-02-07T06:29:03.677Z,100799.80
2019-02-07T06:30:07.284Z,100797.08
2019-02-07T06:30:51.511Z,100799.85
2019-02-07T06:31:52.252Z,100798.20
2019-02-07T06:32:36.450Z,100788.12
2019-02-07T06:33:49.395Z,100792.91
2019-02-07T06:34:44.378Z,100792.59
2019-02-07T06:35:42.177Z,100788.99
2019-02-07T06:36:37.119Z,100787.78
2019-02-07T06:37:32.561Z,100783.62
2019-02-07T06:38:29.456Z,100778.98
2019-02-07T06:39:28.586Z,100787.38
2019-02-07T06:40:35.789Z,100782.50
2019-02-07T06:41:25.588Z,100781.70
2019-02-07T06:42:29.179Z,100782.82
2019-02-07T06:43:22.538Z,100778.73
2019-02-07T06:44:23.240Z,100780.10
2019-02-07T06:45:33.407Z,100777.38
2019-02-07T06:46:26.526Z,100772.83
2019-02-07T06:47:19.755Z,100768.92
2019-02-07T06:48:32.685Z,100765.16
2019-02-07T06:49:17.419Z,100772.05
2019-02-07T06:50:24.260Z,100766.66
2019-02-07T06:51:34.311Z,100766.18
2019-02-07T06:52:38.047Z,100766.83
2019-02-07T06:53:22.913Z,100761.23
2019-02-07T06:54:36.011Z,100756.68
2019-02-07T06:55:45.988Z,100754.77
2019-02-07T06:56:44.085Z,100759.69
2019-02-07T06:57:37.630Z,100763.77
2019-02-07T06:58:32.285Z,100760.58
2019-02-07T06:59:29.875Z,100763.29
2019-02-07T07:00:38.600Z,100757.05
2019-02-07T07:01:45.421Z,100751.94
2019-02-07T07:02:38.815Z,100745.14
2019-02-07T07:03:25.303Z,100740.03
2019-02-07T07:04:10.285Z,100742.42
2019-02-07T07:05:03.531Z,100739.79
2019-02-07T07:05:49.869Z,100736.51
2019-02-07T07:06:43.300Z,100737.23
2019-02-07T07:07:41.609Z,100736.58
2019-02-07T07:08:42.479Z,100735.97
2019-02-07T07:09:37.491Z,100730.36
2019-02-07T07:10:31.345Z,100728.98
2019-02-07T07:11:25.455Z,100725.53
2019-02-07T07:12:15.978Z,100724.05
2019-02-07T07:13:22.689Z,100723.74
2019-02-07T07:14:20.247Z,100721.31
2019-02-07T07:15:11.993Z,100719.38
2019-02-07T07:16:05.301Z,100723.80
2019-02-07T07:17:00.261Z,100720.13
2019-02-07T07:17:55.269Z,100723.27
2019-02-07T07:18:48.619Z,100718.45
2019-02-07T07:19:41.887Z,100713.91
2019-02-07T07:20:39.511Z,100712.92
2019-02-07T07:21:32.473Z,100709.97
2019-02-07T07:22:25.783Z,100711.42
2019-02-07T07:23:19.605Z,100712.96
2019-02-07T07:24:20.460Z,100710.01
2019-02-07T07:25:09.281Z,100709.06
2019-02-07T07:26:02.656Z,100713.29
2019-02-07T07:26:55.561Z,100706.34
2019-02-07T07:27:59.374Z,100706.19
2019-02-07T07:28:57.257Z,100708.53
2019-02-07T07:29:50.548Z,100705.19
2019-02-07T07:30:48.119Z,100703.64
2019-02-07T07:31:43.174Z,100697.25
2019-02-07T07:32:31.480Z,100697.42
2019-02-07T07:33:18.631Z,100697.80
2019-02-07T07:34:16.034Z,100699.09
2019-02-07T07:35:13.879Z,100699.95
2019-02-07T07:36:20.941Z,100697.96
2019-02-07T07:37:24.859Z,100701.64
2019-02-07T07:38:12.741Z,100696.14
2019-02-07T07:39:15.401Z,100698.75
2019-02-07T07:40:12.792Z,100699.63
2019-02-07T07:40:56.829Z,100696.20
2019-02-07T07:41:51.889Z,100692.29
2019-02-07T07:42:49.549Z,100695.64
2019-02-07T07:43:40.181Z,100701.40
2019-02-07T07:44:38.041Z,100689.25
2019-02-07T07:45:34.172Z,100688.27
2019-02-07T07:46:29.119Z,100687.04
2019-02-07T07:47:23.765Z,100685.59
2019-02-07T07:48:17.301Z,100687.91
2019-02-07T07:49:12.412Z,100684.16
2019-02-07T07:50:16.310Z,100686.80
2019-02-07T07:51:14.038Z,100684.40
2019-02-07T07:52:06.005Z,100676.02
2019-02-07T07:52:58.978Z,100677.85
2019-02-07T07:53:52.261Z,100674.73
2019-02-07T07:54:40.812Z,100663.81
2019-02-07T07:55:53.489Z,100666.41
2019-02-07T07:56:46.801Z,100662.88
2019-02-07T07:57:41.766Z,100660.25
2019-02-07T07:58:39.710Z,100654.23
2019-02-07T07:59:37.853Z,100654.25
2019-02-07T08:00:36.070Z,100650.87
2019-02-07T08:01:33.851Z,100651.13
2019-02-07T08:02:26.797Z,100647.84
2019-02-07T08:03:17.296Z,100648.13
2019-02-07T08:04:00.411Z,100648.75
2019-02-07T08:04:53.923Z,100646.27
2019-02-07T08:05:48.841Z,100647.63
2019-02-07T08:06:47.269Z,100638.58
2019-02-07T08:07:47.908Z,100637.36
2019-02-07T08:08:40.922Z,100640.49
2019-02-07T08:09:41.952Z,100632.23
2019-02-07T08:10:43.516Z,100626.23
2019-02-07T08:11:28.753Z,100625.77
2019-02-07T08:12:12.654Z,100617.84
2019-02-07T08:13:25.628Z,100613.99
2019-02-07T08:14:12.365Z,100608.09
2019-02-07T08:15:05.169Z,100608.09
2019-02-07T08:16:03.316Z,100606.48
2019-02-07T08:17:01.381Z,100607.11
2019-02-07T08:17:56.353Z,100609.55
2019-02-07T08:18:59.977Z,100611.75
2019-02-07T08:19:53.095Z,100616.95
2019-02-07T08:20:46.221Z,100621.69
2019-02-07T08:21:59.150Z,100620.65
2019-02-07T08:22:52.567Z,100626.38
2019-02-07T08:24:02.798Z,100626.23
2019-02-07T08:24:58.051Z,100625.20
2019-02-07T08:25:51.231Z,100626.23
2019-02-07T08:26:44.354Z,100619.53
2019-02-07T08:27:37.533Z,100613.30
2019-02-07T08:28:29.178Z,100611.79
2019-02-07T08:29:30.047Z,100609.78
2019-02-07T08:30:36.250Z,100609.78
2019-02-07T08:31:26.612Z,100609.54
2019-02-07T08:32:14.563Z,100610.75
2019-02-07T08:33:21.614Z,100607.64
2019-02-07T08:34:13.423Z,100606.61
2019-02-07T08:35:01.087Z,100608.94
2019-02-07T08:35:54.247Z,100604.87
2019-02-07T08:36:44.856Z,100601.11
2019-02-07T08:37:38.253Z,100607.99
2019-02-07T08:38:31.290Z,100611.80
2019-02-07T08:39:39.742Z,100618.36
2019-02-07T08:40:28.333Z,100625.47
2019-02-07T08:41:21.528Z,100633.47
2019-02-07T08:42:08.055Z,100631.39
2019-02-07T08:43:12.991Z,100627.09
2019-02-07T08:44:07.568Z,100633.40
2019-02-07T08:45:08.702Z,100634.28
2019-02-07T08:46:02.151Z,100645.15
2019-02-07T08:46:49.058Z,100643.87
2019-02-07T08:47:59.111Z,100644.16
2019-02-07T08:49:02.947Z,100646.87
2019-02-07T08:49:59.088Z,100654.04
2019-02-07T08:50:54.000Z,100658.28
2019-02-07T08:51:51.921Z,100663.16
2019-02-07T08:52:46.793Z,100672.58
2019-02-07T08:53:30.592Z,100675.97
2019-02-07T08:54:31.449Z,100679.23
2019-02-07T08:55:24.713Z,100677.87
2019-02-07T08:56:22.227Z,100688.54
2019-02-07T08:57:19.767Z,100693.73
2019-02-07T08:58:14.989Z,100689.82
2019-02-07T08:59:08.527Z,100690.27
2019-02-07T09:00:03.900Z,100684.42
2019-02-07T09:00:58.797Z,100679.61
2019-02-07T09:01:47.720Z,100682.16
2019-02-07T09:02:51.336Z,100678.95
2019-02-07T09:03:40.664Z,100674.31
2019-02-07T09:04:35.969Z,100670.37
2019-02-07T09:05:33.859Z,100673.38